Nearby METAR Reports

 

KALB - Albany, New York, USA
Distance from station: E 47mi, 75km
Updated: Tue, 28-Feb-2017 4:51am EST
Overcast
Overcast
 Wind from calm
Wind: Calm
Temperature: 36°F , 2°C
Dew Point: 27°F , -3°C
Humidity: 70%
Barometer: 30.35 inHg , 1027.8 hPa
Clouds: Overcast
Visibility: 10 miles , 16 km
Cloud details: Mostly cloudy 6000 ft
Overcast 8500 ft
2017/02/28 09:51 KALB 280951Z 00000KT 10SM BKN060 OVC085 02/M03 A3035 RMK AO2 SLP279 VIRGA OHD T00171033
KSLK - Saranac Lake, New York, USA
Distance from station: N 110mi, 177km
Updated: Tue, 28-Feb-2017 4:51am EST
Overcast
Overcast
 Wind from calm
Wind: Calm
Temperature: 19°F , -7°C
Dew Point: 19°F , -7°C
Humidity: 100%
Barometer: 30.28 inHg , 1025.4 hPa
Clouds: Overcast
Visibility: 10 miles , 16 km
Cloud details: Overcast 8500 ft
2017/02/28 09:51 KSLK 280951Z AUTO 00000KT 10SM OVC085 M07/M07 A3028 RMK AO2 SLP276 T10671067 $
 
KSYR - Syracuse, New York, USA
Distance from station: W 73mi, 117km
Updated: Tue, 28-Feb-2017 4:54am EST
Overcast
Overcast
 Wind from E
Wind: E 5 mph , 7 km/h
Temperature: 34°F , 1°C
Wind Chill: 29°F , -2°C
Dew Point: 28°F , -2°C
Humidity: 81%
Barometer: 30.29 inHg , 1025.7 hPa
Clouds: Overcast
Visibility: 10 miles , 16 km
Cloud details: Overcast 8500 ft
2017/02/28 09:54 KSYR 280954Z 09004KT 10SM OVC085 01/M02 A3029 RMK AO2 SLP258 T00111017
KBGM - Binghamton, New York, USA
Distance from station: SW 78mi, 126km
Updated: Tue, 28-Feb-2017 4:53am EST
Overcast
Overcast
 Wind from calm
Wind: Calm
Temperature: 36°F , 2°C
Dew Point: 30°F , -1°C
Humidity: 81%
Barometer: 30.28 inHg , 1025.4 hPa
Clouds: Overcast
Visibility: 10 miles , 16 km
Cloud details: Overcast 6500 ft
2017/02/28 09:53 KBGM 280953Z AUTO 00000KT 10SM OVC065 02/M01 A3028 RMK AO2 SLP266 T00171006
 
KRME - Rome, New York, USA
Distance from station: WNW 43mi, 69km
Updated: Tue, 28-Feb-2017 4:53am EST
Overcast
Overcast
 Wind from calm
Wind: Calm
Temperature: 34°F , 1°C
Dew Point: 28°F , -2°C
Humidity: 81%
Barometer: 30.33 inHg , 1027.1 hPa
Clouds: Overcast
Visibility: 10 miles , 16 km
Cloud details: Overcast 8500 ft
2017/02/28 09:53 KRME 280953Z AUTO 00000KT 10SM OVC085 01/M02 A3033 RMK AO2 SLP273 T00061017
KJFK - New York, New York, USA
Distance from station: SSE 159mi, 256km
Updated: Tue, 28-Feb-2017 4:51am EST
Overcast
Overcast
 Wind from ESE
Wind: ESE 3 mph , 6 km/h
Temperature: 43°F , 6°C
Dew Point: 39°F , 4°C
Humidity: 87%
Barometer: 30.37 inHg , 1028.4 hPa
Clouds: Overcast
Visibility: 10 miles , 16 km
Cloud details: Partly cloudy 9500 ft
Overcast 12000 ft
2017/02/28 09:51 KJFK 280951Z 11003KT 10SM SCT095 OVC120 06/04 A3037 RMK AO2 SLP284 T00610044
 
KROC - Rochester, New York, USA
Distance from station: W 150mi, 242km
Updated: Tue, 28-Feb-2017 4:54am EST
Overcast
Overcast
 Wind from SSW
Wind: SSW 3 mph , 6 km/h
Temperature: 36°F , 2°C
Dew Point: 28°F , -2°C
Humidity: 75%
Barometer: 30.28 inHg , 1025.4 hPa
Clouds: Overcast
Visibility: 10 miles , 16 km
Cloud details: Overcast 8000 ft
2017/02/28 09:54 KROC 280954Z 20003KT 10SM OVC080 02/M02 A3028 RMK AO2 SLP260 T00221022
KART - Watertown, New York, USA
Distance from station: NNW 103mi, 166km
Updated: Tue, 28-Feb-2017 4:56am EST
Overcast
Overcast
 Wind from E
Wind: E 5 mph , 7 km/h
Temperature: 34°F , 1°C
Wind Chill: 29°F , -2°C
Dew Point: 28°F , -2°C
Humidity: 81%
Barometer: 30.30 inHg , 1026.1 hPa
Clouds: Overcast
Visibility: 8 miles , 13 km
Cloud details: Overcast 10000 ft
2017/02/28 09:56 KART 280956Z AUTO 08004KT 8SM OVC100 01/M02 A3030 RMK AO2 SLP264 T00061017
 
KELM - Elmira-Corning, New York, USA
Distance from station: SSW 121mi, 195km
Updated: Tue, 28-Feb-2017 4:53am EST
Light rain, Overcast
Light rain, Overcast
 Wind from calm
Wind: Calm
Temperature: 37°F , 3°C
Dew Point: 34°F , 1°C
Humidity: 87%
Barometer: 30.28 inHg , 1025.4 hPa
Summary: Light rain
Clouds: Overcast
Visibility: 10 miles , 16 km
Cloud details: Few Clouds 5500 ft
Overcast 7000 ft
2017/02/28 09:53 KELM 280953Z AUTO 00000KT 10SM -RA FEW055 OVC070 03/01 A3028 RMK AO2 RAB16 SLP259 P0000 T00330011
KJHW - Jamestown, New York, USA
Distance from station: SW 238mi, 383km
Updated: Tue, 28-Feb-2017 4:55am EST
Clear
Clear
 Wind from SSE
Wind: SSE 6 mph , 9 km/h
Temperature: 36°F , 2°C
Wind Chill: 31°F , -1°C
Dew Point: 32°F , 0°C
Humidity: 87%
Barometer: 30.19 inHg , 1022.4 hPa
Clouds: Clear
Visibility: 10 miles , 16 km
2017/02/28 09:55 KJHW 280955Z AUTO 16005KT 10SM CLR 02/00 A3019 RMK AO1
 
KMSS - Massena, New York, USA
Distance from station: N 141mi, 232km
Updated: Tue, 28-Feb-2017 4:53am EST
Clear
Clear
 Wind from calm
Wind: Calm
Temperature: 19°F , -7°C
Dew Point: 18°F , -8°C
Humidity: 93%
Barometer: 30.35 inHg , 1027.8 hPa
Clouds: Clear
Visibility: 10 miles , 16 km
2017/02/28 09:53 KMSS 280953Z AUTO 00000KT 10SM CLR M07/M08 A3035 RMK AO2 SLP284 T10671083
KBUF - Buffalo, New York, USA
Distance from station: W 204mi, 328km
Updated: Tue, 28-Feb-2017 4:54am EST
Overcast
Overcast
 Wind from ESE
Wind: ESE 5 mph , 7 km/h
Temperature: 37°F , 3°C
Wind Chill: 33°F , 1°C
Dew Point: 27°F , -3°C
Humidity: 65%
Barometer: 30.24 inHg , 1024 hPa
Clouds: Overcast
Visibility: 10 miles , 16 km
Cloud details: Mostly cloudy 4500 ft
Overcast 6000 ft
2017/02/28 09:54 KBUF 280954Z 12004KT 10SM BKN045 OVC060 03/M03 A3024 RMK AO2 SLP248 T00281028